Geneseo, KS (67444)

4:08 PM CST on February 01, 2015 (GMT -0600)
Venango Lane @ Kanopolis Lake | Change Station
CLOSE
Current Station
Personal Weather Station
Location: Marquette, KS
Elevation: 1539 ft
Nearby Weather Stations
Active Advisory: Wind Advisory Active Notice: Public Information Statement

Elev 1539 ft 38.64 °N, 97.99 °W | Updated 1 minute ago

Overcast
Overcast
17.1 °F
Feels Like 10 °F
N
4.7
Wind Variable Wind from West

Today
High -- | Low -- °F
--% Chance of Precip.
Yesterday
High -- | Low -- °F
Precip. -- in
7:38 AM 5:54 PM
Waxing Gibbous, 96% visible
Pressure 30.20 in
Visibility 2.0 miles
Clouds Few 1700 ft
Mostly Cloudy 2700 ft
Overcast 3800 ft
Windchill 10 °F
Dew Point 13 °F
Humidity 85%
Rainfall 0.12 in
Snow Depth Not available.
UV 0 out of 12
Pollen .10 out of 12
Air Quality Not available.
Flu Activity Not available.
METAR KSLN 012149Z 33026G31KT 2SM -SN FEW017 BKN027 OVC038 M08/M12 A3020 RMK AO2 PK WND 33036/2055 P0000

More Conditions Fewer Conditions

Pressure 30.20 in
Visibility 2.0 miles
Clouds Few 1700 ft
Mostly Cloudy 2700 ft
Overcast 3800 ft
Windchill 10 °F
Dew Point 13 °F
Humidity 85%
Rainfall 0.12 in
Snow Depth Not available.
UV 0 out of 12
Pollen .10 out of 12
Air Quality Not available.
Flu Activity Not available.
METAR KSLN 012149Z 33026G31KT 2SM -SN FEW017 BKN027 OVC038 M08/M12 A3020 RMK AO2 PK WND 33036/2055 P0000

More Conditions Fewer Conditions

10-Day Weather Forecast

Almanac

Astronomy

Feb. 01, 2015 Rise Set
Actual Time
Civil Twilight
Nautical Twilight
Astronomical Twilight
Moon
Length of Visible Light
Length of Day
Tomorrow will be .
, % of the Moon is Illuminated

Today's Extremes

State Highs State Lows

Community

WunderPhotos

Upload Photos

1,792,561 photos uploaded!

WunderBlogs® & News

Nearby

Air Quality

  Air Quality AQ Index Pollutant
Not available.

Snow Depth

Station Depth Elevation

Earthquake Activity

City Distance Mag. Time & Date
Minimum magnitude displayed is 2.5.

Coastal Water Temperatures

Place Temperature

Nearby Weather Stations